createdAt,value
2023-01-08T00:00:05.059Z,19.1
2023-01-08T00:01:06.843Z,19.1
2023-01-08T00:02:08.497Z,19.1
2023-01-08T00:03:10.559Z,19.1
2023-01-08T00:04:12.911Z,19.1
2023-01-08T00:05:14.930Z,19.1
2023-01-08T00:06:16.853Z,19
2023-01-08T00:07:18.479Z,19.1
2023-01-08T00:08:20.078Z,19.1
2023-01-08T00:09:21.718Z,19.1
2023-01-08T00:10:23.400Z,19.2
2023-01-08T00:11:25.011Z,19.1
2023-01-08T00:12:26.666Z,19.1
2023-01-08T00:13:28.336Z,19.1
2023-01-08T00:14:29.992Z,19.1
2023-01-08T00:15:31.821Z,19.1
2023-01-08T00:16:33.661Z,19.1
2023-01-08T00:17:35.522Z,19.1
2023-01-08T00:18:37.121Z,19.1
2023-01-08T00:19:38.745Z,19.1
2023-01-08T00:20:40.363Z,19.1
2023-01-08T00:21:42.338Z,19.1
2023-01-08T00:22:46.453Z,19.1
2023-01-08T00:23:48.069Z,19.1
2023-01-08T00:24:49.681Z,19.1
2023-01-08T00:25:51.311Z,19.1
2023-01-08T00:26:52.978Z,19.1
2023-01-08T00:27:54.600Z,19.1
2023-01-08T00:28:56.242Z,19.1
2023-01-08T00:29:57.919Z,19
2023-01-08T00:31:03.541Z,19.1
2023-01-08T00:32:06.074Z,19.1
2023-01-08T00:33:07.722Z,19.1
2023-01-08T00:34:09.348Z,19.1
2023-01-08T00:35:11.002Z,19.1
2023-01-08T00:36:12.672Z,19
2023-01-08T00:37:14.588Z,19.1
2023-01-08T00:38:16.266Z,19.1
2023-01-08T00:39:17.888Z,19.1
2023-01-08T00:40:19.508Z,19.1
2023-01-08T00:41:21.167Z,19.1
2023-01-08T00:42:22.807Z,19.1
2023-01-08T00:43:24.478Z,19.1
2023-01-08T00:44:26.094Z,19.1
2023-01-08T00:45:27.795Z,19.1
2023-01-08T00:46:29.637Z,19.1
2023-01-08T00:47:31.435Z,19.1
2023-01-08T00:48:33.095Z,19.1
2023-01-08T00:49:34.787Z,19.1
2023-01-08T00:50:36.415Z,19.1
2023-01-08T00:51:38.071Z,19.1
2023-01-08T00:52:39.977Z,19.1
2023-01-08T00:53:41.744Z,19.1
2023-01-08T00:54:43.469Z,19.1
2023-01-08T00:55:45.118Z,19.1
2023-01-08T00:56:46.728Z,19.1
2023-01-08T00:57:48.432Z,19.1
2023-01-08T00:58:50.147Z,19.1
2023-01-08T00:59:51.808Z,19.1
2023-01-08T01:00:53.770Z,19.1
2023-01-08T01:01:56.197Z,19.1
2023-01-08T01:02:58.561Z,19.1
2023-01-08T01:04:00.514Z,19.1
2023-01-08T01:05:02.302Z,19.1
2023-01-08T01:06:04.122Z,19
2023-01-08T01:07:05.997Z,19.1
2023-01-08T01:08:07.896Z,19.1
2023-01-08T01:09:09.631Z,19.1
2023-01-08T01:10:11.301Z,19.1
2023-01-08T01:11:12.969Z,19
2023-01-08T01:12:14.612Z,19
2023-01-08T01:13:16.238Z,19
2023-01-08T01:14:17.887Z,19
2023-01-08T01:15:19.587Z,19
2023-01-08T01:16:21.533Z,19.1
2023-01-08T01:17:23.704Z,19
2023-01-08T01:18:25.458Z,19
2023-01-08T01:19:27.112Z,19
2023-01-08T01:20:28.784Z,19
2023-01-08T01:21:30.459Z,19.1
2023-01-08T01:22:32.105Z,19.1
2023-01-08T01:23:34.054Z,19
2023-01-08T01:24:35.743Z,19
2023-01-08T01:25:37.360Z,19
2023-01-08T01:26:39.032Z,19.1
2023-01-08T01:27:40.693Z,19.1
2023-01-08T01:28:42.333Z,19.1
2023-01-08T01:29:44.069Z,19
2023-01-08T01:30:45.869Z,19
2023-01-08T01:31:47.725Z,19
2023-01-08T01:32:49.520Z,19
2023-01-08T01:33:51.391Z,19
2023-01-08T01:34:53.079Z,19
2023-01-08T01:35:54.707Z,19
2023-01-08T01:36:56.337Z,19.1
2023-01-08T01:37:57.968Z,19
2023-01-08T01:38:59.911Z,19
2023-01-08T01:40:01.717Z,19
2023-01-08T01:41:03.422Z,19
2023-01-08T01:42:05.103Z,19
2023-01-08T01:43:06.720Z,19
2023-01-08T01:44:08.407Z,19
2023-01-08T01:45:10.054Z,19
2023-01-08T01:46:11.829Z,19
2023-01-08T01:47:13.788Z,19
2023-01-08T01:48:15.691Z,19.1
2023-01-08T01:49:17.516Z,19
2023-01-08T01:50:19.143Z,19
2023-01-08T01:51:20.798Z,19.1
2023-01-08T01:52:22.419Z,19.1
2023-01-08T01:53:24.057Z,19
2023-01-08T01:54:28.721Z,19
2023-01-08T01:55:30.690Z,19
2023-01-08T01:56:32.275Z,19
2023-01-08T01:57:33.873Z,19
2023-01-08T01:58:35.572Z,19
2023-01-08T01:59:37.201Z,19
2023-01-08T02:00:38.876Z,19
2023-01-08T02:01:40.839Z,19
2023-01-08T02:02:44.101Z,18.9
2023-01-08T02:03:46.209Z,19
2023-01-08T02:04:48.471Z,18.8
2023-01-08T02:05:50.380Z,18.9
2023-01-08T02:06:52.238Z,19
2023-01-08T02:07:54.005Z,19
2023-01-08T02:08:55.795Z,19
2023-01-08T02:09:57.774Z,19.1
2023-01-08T02:10:59.462Z,19.1
2023-01-08T02:12:01.108Z,19.1
2023-01-08T02:13:02.736Z,19.2
2023-01-08T02:14:04.391Z,19.2
2023-01-08T02:15:06.028Z,19.2
2023-01-08T02:16:07.690Z,19.2
2023-01-08T02:17:09.317Z,19.2
2023-01-08T02:18:10.960Z,19.1
2023-01-08T02:19:12.826Z,19.2
2023-01-08T02:20:14.638Z,19.1
2023-01-08T02:21:16.309Z,19.1
2023-01-08T02:22:17.906Z,19.1
2023-01-08T02:23:19.524Z,19.1
2023-01-08T02:24:21.204Z,19.1
2023-01-08T02:25:23.201Z,19
2023-01-08T02:26:24.881Z,19.1
2023-01-08T02:27:26.531Z,19.1
2023-01-08T02:28:28.423Z,19
2023-01-08T02:29:30.091Z,19
2023-01-08T02:30:31.969Z,19.1
2023-01-08T02:31:34.037Z,19.1
2023-01-08T02:32:35.722Z,19
2023-01-08T02:33:37.335Z,19
2023-01-08T02:34:39.196Z,19
2023-01-08T02:35:40.919Z,19
2023-01-08T02:36:42.659Z,19.1
2023-01-08T02:37:45.388Z,19.1
2023-01-08T02:38:47.007Z,19
2023-01-08T02:39:48.667Z,19
2023-01-08T02:40:50.550Z,19.1
2023-01-08T02:41:52.695Z,19.1
2023-01-08T02:42:54.307Z,19.1
2023-01-08T02:43:55.900Z,19.1
2023-01-08T02:44:57.600Z,19
2023-01-08T02:45:59.262Z,19.1
2023-01-08T02:47:01.055Z,19
2023-01-08T02:48:02.665Z,19.1
2023-01-08T02:49:04.376Z,19
2023-01-08T02:50:06.245Z,19.1
2023-01-08T02:51:08.128Z,19.1
2023-01-08T02:52:09.791Z,19.1
2023-01-08T02:53:11.409Z,19.1
2023-01-08T02:54:13.040Z,19.1
2023-01-08T02:55:14.783Z,19
2023-01-08T02:56:16.650Z,19
2023-01-08T02:57:18.370Z,19.1
2023-01-08T02:58:19.991Z,19.1
2023-01-08T02:59:21.640Z,19.1
2023-01-08T03:00:23.372Z,19
2023-01-08T03:01:25.299Z,19
2023-01-08T03:02:27.778Z,19.1
2023-01-08T03:03:29.968Z,19
2023-01-08T03:04:31.770Z,19.1
2023-01-08T03:05:33.988Z,19.1
2023-01-08T03:06:35.782Z,19
2023-01-08T03:07:37.417Z,19
2023-01-08T03:08:39.007Z,19
2023-01-08T03:09:40.656Z,19
2023-01-08T03:10:42.290Z,19
2023-01-08T03:11:44.194Z,19
2023-01-08T03:12:45.943Z,19
2023-01-08T03:13:47.575Z,19
2023-01-08T03:14:49.183Z,19
2023-01-08T03:15:50.867Z,19
2023-01-08T03:16:52.561Z,19
2023-01-08T03:17:54.390Z,19
2023-01-08T03:18:56.010Z,19
2023-01-08T03:19:57.703Z,19
2023-01-08T03:20:59.513Z,19
2023-01-08T03:22:01.415Z,19
2023-01-08T03:23:03.060Z,19
2023-01-08T03:24:04.712Z,19
2023-01-08T03:25:06.338Z,19
2023-01-08T03:26:07.970Z,19
2023-01-08T03:27:09.999Z,19
2023-01-08T03:28:11.665Z,19
2023-01-08T03:29:13.319Z,18.9
2023-01-08T03:30:14.986Z,18.9
2023-01-08T03:31:16.836Z,18.9
2023-01-08T03:32:18.891Z,18.9
2023-01-08T03:33:20.509Z,19
2023-01-08T03:34:22.130Z,19
2023-01-08T03:35:23.809Z,19
2023-01-08T03:36:25.596Z,19
2023-01-08T03:37:27.451Z,18.9
2023-01-08T03:38:29.165Z,19
2023-01-08T03:39:30.842Z,18.9
2023-01-08T03:40:32.527Z,18.9
2023-01-08T03:41:34.170Z,18.9
2023-01-08T03:42:36.124Z,18.9
2023-01-08T03:43:37.785Z,18.9
2023-01-08T03:44:39.379Z,18.9
2023-01-08T03:45:41.030Z,18.9
2023-01-08T03:46:42.696Z,18.9
2023-01-08T03:47:44.340Z,18.9
2023-01-08T03:48:45.998Z,18.9
2023-01-08T03:49:47.663Z,18.9
2023-01-08T03:50:49.302Z,18.9
2023-01-08T03:51:51.069Z,18.9
2023-01-08T03:52:52.857Z,18.9
2023-01-08T03:53:54.481Z,18.9
2023-01-08T03:54:56.275Z,19
2023-01-08T03:55:57.955Z,18.9
2023-01-08T03:56:59.599Z,19
2023-01-08T03:58:01.614Z,18.9
2023-01-08T03:59:03.273Z,18.9
2023-01-08T04:00:04.978Z,18.9
2023-01-08T04:01:06.606Z,18.9
2023-01-08T04:02:08.659Z,18.9
2023-01-08T04:03:11.125Z,18.9
2023-01-08T04:04:12.871Z,18.9
2023-01-08T04:05:14.739Z,18.9
2023-01-08T04:06:16.407Z,18.9
2023-01-08T04:07:18.140Z,18.8
2023-01-08T04:08:19.900Z,18.9
2023-01-08T04:09:21.977Z,18.9
2023-01-08T04:10:23.651Z,18.9
2023-01-08T04:11:25.304Z,18.9
2023-01-08T04:12:26.943Z,18.8
2023-01-08T04:13:28.839Z,18.8
2023-01-08T04:14:30.503Z,18.8
2023-01-08T04:15:32.277Z,18.8
2023-01-08T04:16:34.249Z,18.8
2023-01-08T04:17:35.882Z,18.8
2023-01-08T04:18:37.525Z,18.8
2023-01-08T04:19:39.167Z,18.8
2023-01-08T04:20:40.759Z,18.8
2023-01-08T04:21:42.542Z,18.8
2023-01-08T04:22:44.321Z,18.9
2023-01-08T04:23:46.074Z,18.8
2023-01-08T04:24:47.794Z,18.8
2023-01-08T04:25:49.425Z,18.9
2023-01-08T04:26:51.102Z,18.9
2023-01-08T04:27:52.713Z,18.8
2023-01-08T04:28:54.675Z,18.9
2023-01-08T04:29:59.324Z,18.8
2023-01-08T04:31:01.143Z,18.8
2023-01-08T04:32:03.246Z,18.8
2023-01-08T04:33:04.950Z,18.8
2023-01-08T04:34:06.589Z,18.7
2023-01-08T04:35:08.227Z,18.8
2023-01-08T04:36:09.843Z,18.8
2023-01-08T04:37:11.447Z,18.7
2023-01-08T04:38:13.350Z,18.8
2023-01-08T04:39:15.176Z,18.7
2023-01-08T04:40:16.842Z,18.7
2023-01-08T04:41:18.566Z,18.7
2023-01-08T04:42:20.177Z,18.7
2023-01-08T04:43:21.890Z,18.7
2023-01-08T04:44:23.925Z,18.8
2023-01-08T04:45:25.624Z,18.7
2023-01-08T04:46:27.489Z,18.8
2023-01-08T04:47:29.270Z,18.7
2023-01-08T04:48:30.908Z,18.7
2023-01-08T04:49:32.623Z,18.7
2023-01-08T04:50:34.293Z,18.7
2023-01-08T04:51:35.991Z,18.7
2023-01-08T04:52:37.626Z,18.8
2023-01-08T04:53:39.413Z,18.7
2023-01-08T04:54:41.217Z,18.8
2023-01-08T04:55:42.856Z,18.7
2023-01-08T04:56:44.467Z,18.8
2023-01-08T04:57:46.113Z,18.8
2023-01-08T04:58:47.740Z,18.8
2023-01-08T04:59:49.844Z,18.8
2023-01-08T05:00:51.522Z,18.7
2023-01-08T05:01:53.478Z,18.7
2023-01-08T05:02:56.136Z,18.7
2023-01-08T05:03:58.341Z,18.7
2023-01-08T05:04:59.944Z,18.8
2023-01-08T05:06:01.570Z,18.7
2023-01-08T05:07:03.195Z,18.7
2023-01-08T05:08:04.888Z,18.7
2023-01-08T05:09:06.660Z,18.7
2023-01-08T05:10:08.410Z,18.7
2023-01-08T05:11:10.046Z,18.7
2023-01-08T05:12:11.697Z,18.7
2023-01-08T05:13:13.383Z,18.7
2023-01-08T05:14:15.013Z,18.7
2023-01-08T05:15:16.686Z,18.7
2023-01-08T05:16:18.589Z,18.7
2023-01-08T05:17:20.804Z,18.7
2023-01-08T05:18:22.481Z,18.7
2023-01-08T05:19:24.090Z,18.7
2023-01-08T05:20:25.706Z,18.7
2023-01-08T05:21:27.322Z,18.7
2023-01-08T05:22:29.053Z,18.7
2023-01-08T05:23:30.661Z,18.7
2023-01-08T05:24:32.449Z,18.7
2023-01-08T05:25:34.233Z,18.8
2023-01-08T05:26:35.910Z,18.7
2023-01-08T05:27:37.593Z,18.7
2023-01-08T05:28:39.212Z,18.7
2023-01-08T05:29:40.820Z,18.7
2023-01-08T05:30:42.951Z,18.7
2023-01-08T05:31:44.986Z,18.7
2023-01-08T05:32:46.671Z,18.7
2023-01-08T05:33:48.289Z,18.7
2023-01-08T05:34:49.936Z,18.7
2023-01-08T05:35:51.596Z,18.7
2023-01-08T05:36:53.257Z,18.7
2023-01-08T05:37:54.910Z,18.7
2023-01-08T05:38:56.638Z,18.7
2023-01-08T05:39:58.294Z,18.7
2023-01-08T05:41:00.124Z,18.7
2023-01-08T05:42:01.767Z,18.6
2023-01-08T05:43:03.427Z,18.7
2023-01-08T05:44:05.020Z,18.7
2023-01-08T05:45:09.829Z,18.7
2023-01-08T05:46:11.885Z,18.7
2023-01-08T05:47:13.736Z,18.7
2023-01-08T05:48:15.343Z,18.7
2023-01-08T05:49:17.301Z,18.7
2023-01-08T05:50:18.958Z,18.7
2023-01-08T05:51:20.602Z,18.7
2023-01-08T05:52:22.285Z,18.7
2023-01-08T05:53:23.905Z,18.7
2023-01-08T05:54:25.507Z,18.7
2023-01-08T05:55:27.385Z,18.7
2023-01-08T05:56:29.021Z,18.7
2023-01-08T05:57:30.725Z,18.7
2023-01-08T05:58:32.413Z,18.7
2023-01-08T05:59:34.011Z,18.7
2023-01-08T06:00:35.720Z,18.7
2023-01-08T06:01:37.833Z,18.7
2023-01-08T06:02:40.161Z,18.7
2023-01-08T06:03:42.077Z,18.7
2023-01-08T06:04:43.731Z,18.7
2023-01-08T06:05:45.389Z,18.7
2023-01-08T06:06:46.992Z,18.7
2023-01-08T06:07:48.608Z,18.7
2023-01-08T06:08:50.190Z,18.7
2023-01-08T06:09:51.811Z,18.7
2023-01-08T06:10:53.687Z,18.7
2023-01-08T06:11:55.570Z,18.7
2023-01-08T06:12:57.275Z,18.7
2023-01-08T06:13:59.103Z,18.7
2023-01-08T06:15:00.712Z,18.7
2023-01-08T06:16:02.608Z,18.7
2023-01-08T06:17:05.017Z,18.7
2023-01-08T06:18:06.713Z,18.7
2023-01-08T06:19:08.364Z,18.7
2023-01-08T06:20:10.025Z,18.7
2023-01-08T06:21:11.663Z,18.7
2023-01-08T06:22:13.286Z,18.7
2023-01-08T06:23:14.987Z,18.7
2023-01-08T06:24:16.669Z,18.7
2023-01-08T06:25:18.319Z,18.7
2023-01-08T06:26:20.172Z,18.7
2023-01-08T06:27:21.972Z,18.7
2023-01-08T06:28:23.615Z,18.7
2023-01-08T06:29:25.291Z,18.7
2023-01-08T06:30:26.904Z,18.7
2023-01-08T06:31:28.791Z,18.6
2023-01-08T06:32:31.233Z,18.7
2023-01-08T06:33:32.914Z,18.6
2023-01-08T06:34:34.599Z,18.6
2023-01-08T06:35:36.284Z,18.6
2023-01-08T06:36:37.919Z,18.5
2023-01-08T06:37:39.566Z,18.5
2023-01-08T06:38:41.235Z,18.5
2023-01-08T06:39:42.942Z,18.5
2023-01-08T06:40:44.604Z,18.5
2023-01-08T06:41:46.459Z,18.4
2023-01-08T06:42:48.132Z,18.4
2023-01-08T06:43:49.753Z,18.4
2023-01-08T06:44:51.380Z,18.4
2023-01-08T06:45:53.095Z,18.4
2023-01-08T06:46:55.016Z,18.3
2023-01-08T06:47:57.266Z,18.3
2023-01-08T06:48:59.029Z,18.3
2023-01-08T06:50:00.744Z,18.3
2023-01-08T06:51:02.385Z,18.2
2023-01-08T06:52:04.070Z,18.2
2023-01-08T06:53:05.930Z,18.2
2023-01-08T06:54:07.690Z,18.2
2023-01-08T06:55:09.305Z,18.2
2023-01-08T06:56:11.207Z,18.1
2023-01-08T06:57:13.175Z,18.1
2023-01-08T06:58:15.224Z,18.1
2023-01-08T06:59:17.832Z,18.1
2023-01-08T07:00:19.448Z,18.1
2023-01-08T07:01:21.693Z,18.1
2023-01-08T07:02:26.035Z,18
2023-01-08T07:03:28.656Z,18
2023-01-08T07:04:30.570Z,18
2023-01-08T07:05:32.214Z,18
2023-01-08T07:06:35.967Z,18
2023-01-08T07:07:37.645Z,18
2023-01-08T07:08:39.264Z,18
2023-01-08T07:09:41.027Z,18
2023-01-08T07:10:42.627Z,18
2023-01-08T07:11:44.337Z,18
2023-01-08T07:12:46.081Z,18
2023-01-08T07:13:47.759Z,18
2023-01-08T07:14:49.387Z,18
2023-01-08T07:15:51.325Z,17.9
2023-01-08T07:16:53.510Z,17.9
2023-01-08T07:17:55.163Z,17.9
2023-01-08T07:18:57.036Z,17.9
2023-01-08T07:19:58.704Z,17.9
2023-01-08T07:21:00.307Z,17.9
2023-01-08T07:22:01.894Z,17.9
2023-01-08T07:23:03.573Z,17.9
2023-01-08T07:24:05.252Z,17.9
2023-01-08T07:25:06.852Z,17.9
2023-01-08T07:26:08.580Z,17.9
2023-01-08T07:27:10.314Z,17.9
2023-01-08T07:28:12.115Z,17.9
2023-01-08T07:29:13.878Z,17.9
2023-01-08T07:30:30.369Z,17.9
2023-01-08T07:31:32.864Z,17.9
2023-01-08T07:32:34.857Z,17.9
2023-01-08T07:33:36.561Z,17.9
2023-01-08T07:34:38.512Z,17.9
2023-01-08T07:35:40.201Z,17.9
2023-01-08T07:36:41.900Z,17.9
2023-01-08T07:37:43.541Z,17.9
2023-01-08T07:38:45.159Z,17.9
2023-01-08T07:39:46.800Z,17.9
2023-01-08T07:40:48.454Z,17.9
2023-01-08T07:41:50.239Z,17.8
2023-01-08T07:42:51.884Z,17.9
2023-01-08T07:43:53.656Z,17.9
2023-01-08T07:44:55.482Z,17.8
2023-01-08T07:45:57.119Z,17.8
2023-01-08T07:46:58.750Z,17.8
2023-01-08T07:48:00.373Z,17.8
2023-01-08T07:49:02.023Z,17.8
2023-01-08T07:50:04.000Z,17.9
2023-01-08T07:51:05.690Z,17.8
2023-01-08T07:52:07.404Z,17.9
2023-01-08T07:53:09.013Z,17.9
2023-01-08T07:54:10.624Z,17.8
2023-01-08T07:55:12.318Z,17.8
2023-01-08T07:56:14.077Z,17.8
2023-01-08T07:57:15.671Z,17.9
2023-01-08T07:58:17.333Z,17.9
2023-01-08T07:59:19.156Z,17.9
2023-01-08T08:00:20.967Z,17.9
2023-01-08T08:01:22.873Z,17.9
2023-01-08T08:02:25.509Z,17.9
2023-01-08T08:03:28.098Z,17.9
2023-01-08T08:04:30.149Z,17.9
2023-01-08T08:05:32.064Z,17.9
2023-01-08T08:06:33.767Z,17.9
2023-01-08T08:07:35.447Z,17.9
2023-01-08T08:08:37.167Z,17.9
2023-01-08T08:09:38.811Z,17.9
2023-01-08T08:10:40.433Z,17.9
2023-01-08T08:11:42.060Z,17.9
2023-01-08T08:12:43.721Z,17.9
2023-01-08T08:13:45.502Z,17.9
2023-01-08T08:14:47.468Z,17.9
2023-01-08T08:15:49.559Z,17.9
2023-01-08T08:16:51.402Z,17.9
2023-01-08T08:17:53.053Z,18
2023-01-08T08:18:54.686Z,18
2023-01-08T08:19:56.319Z,18
2023-01-08T08:20:58.283Z,18
2023-01-08T08:21:59.933Z,18
2023-01-08T08:23:01.582Z,18
2023-01-08T08:24:03.217Z,18
2023-01-08T08:25:04.814Z,18
2023-01-08T08:26:06.710Z,18
2023-01-08T08:27:08.346Z,18
2023-01-08T08:28:09.948Z,18
2023-01-08T08:29:11.543Z,18
2023-01-08T08:30:13.359Z,18
2023-01-08T08:31:15.472Z,18
2023-01-08T08:32:17.623Z,18
2023-01-08T08:33:19.259Z,18.1
2023-01-08T08:34:20.885Z,18.1
2023-01-08T08:35:22.541Z,18.1
2023-01-08T08:36:24.490Z,18.1
2023-01-08T08:37:26.160Z,18.1
2023-01-08T08:38:27.784Z,18.1
2023-01-08T08:39:29.405Z,18.1
2023-01-08T08:40:31.021Z,18.1
2023-01-08T08:41:32.725Z,18.1
2023-01-08T08:42:34.352Z,18.1
2023-01-08T08:43:35.950Z,18.1
2023-01-08T08:44:37.585Z,18.1
2023-01-08T08:45:39.356Z,18.1
2023-01-08T08:46:41.370Z,18.1
2023-01-08T08:47:43.092Z,18.1
2023-01-08T08:48:44.872Z,18.1
2023-01-08T08:49:46.493Z,18.1
2023-01-08T08:50:48.127Z,18.1
2023-01-08T08:51:49.868Z,18.1
2023-01-08T08:52:51.694Z,18.1
2023-01-08T08:53:53.342Z,18.1
2023-01-08T08:54:54.948Z,18.1
2023-01-08T08:55:56.584Z,18.2
2023-01-08T08:56:58.325Z,18.1
2023-01-08T08:57:59.972Z,18.2
2023-01-08T08:59:01.615Z,18.2
2023-01-08T09:00:03.290Z,18.2
2023-01-08T09:01:05.085Z,18.2
2023-01-08T09:02:07.565Z,18.2
2023-01-08T09:03:10.240Z,18.2
2023-01-08T09:04:12.229Z,18.2
2023-01-08T09:05:13.872Z,18.2
2023-01-08T09:06:15.563Z,18.2
2023-01-08T09:07:17.521Z,18.2
2023-01-08T09:08:19.319Z,18.2
2023-01-08T09:09:23.898Z,18.2
2023-01-08T09:10:25.751Z,18.2
2023-01-08T09:11:27.657Z,18.2
2023-01-08T09:12:29.310Z,18.2
2023-01-08T09:13:30.933Z,18.2
2023-01-08T09:14:32.577Z,18.2
2023-01-08T09:15:34.232Z,18.2
2023-01-08T09:16:36.500Z,18.2
2023-01-08T09:17:38.600Z,18.2
2023-01-08T09:18:40.277Z,18.2
2023-01-08T09:19:41.892Z,18.2
2023-01-08T09:20:43.511Z,18.2
2023-01-08T09:21:45.132Z,18.2
2023-01-08T09:22:47.027Z,18.2
2023-01-08T09:23:48.754Z,18.2
2023-01-08T09:24:50.394Z,18.2
2023-01-08T09:25:52.014Z,18.2
2023-01-08T09:26:53.625Z,18.3
2023-01-08T09:27:55.268Z,18.3
2023-01-08T09:28:56.913Z,18.3
2023-01-08T09:29:58.549Z,18.3
2023-01-08T09:31:00.157Z,18.3
2023-01-08T09:32:01.965Z,18.3
2023-01-08T09:33:03.868Z,18.3
2023-01-08T09:34:05.506Z,18.3
2023-01-08T09:35:07.146Z,18.3
2023-01-08T09:36:08.777Z,18.3
2023-01-08T09:37:10.406Z,18.3
2023-01-08T09:38:12.328Z,18.3
2023-01-08T09:39:14.015Z,18.3
2023-01-08T09:40:15.594Z,18.3
2023-01-08T09:41:17.244Z,18.3
2023-01-08T09:42:18.937Z,18.3
2023-01-08T09:43:20.563Z,18.3
2023-01-08T09:44:22.220Z,18.3
2023-01-08T09:45:23.891Z,18.3
2023-01-08T09:46:25.609Z,18.3
2023-01-08T09:47:27.642Z,18.3
2023-01-08T09:48:29.517Z,18.3
2023-01-08T09:49:31.170Z,18.3
2023-01-08T09:50:32.764Z,18.3
2023-01-08T09:51:34.392Z,18.3
2023-01-08T09:52:36.039Z,18.4
2023-01-08T09:53:38.005Z,18.4
2023-01-08T09:54:39.690Z,18.4
2023-01-08T09:55:41.420Z,18.4
2023-01-08T09:56:43.025Z,18.4
2023-01-08T09:57:44.682Z,18.4
2023-01-08T09:58:46.321Z,18.4
2023-01-08T09:59:48.048Z,18.4
2023-01-08T10:00:49.851Z,18.4
2023-01-08T10:01:51.832Z,18.4
2023-01-08T10:02:54.484Z,18.4
2023-01-08T10:03:56.736Z,18.4
2023-01-08T10:04:58.394Z,18.4
2023-01-08T10:06:00.101Z,18.4
2023-01-08T10:07:01.877Z,18.4
2023-01-08T10:08:03.508Z,18.4
2023-01-08T10:09:09.404Z,18.4
2023-01-08T10:10:11.095Z,18.4
2023-01-08T10:11:12.754Z,18.4
2023-01-08T10:12:14.384Z,18.4
2023-01-08T10:13:16.086Z,18.4
2023-01-08T10:14:17.703Z,18.4
2023-01-08T10:15:19.313Z,18.4
2023-01-08T10:16:21.160Z,18.4
2023-01-08T10:17:22.932Z,18.5
2023-01-08T10:18:24.629Z,18.5
2023-01-08T10:19:26.476Z,18.6
2023-01-08T10:20:28.101Z,18.5
2023-01-08T10:21:29.860Z,18.5
2023-01-08T10:22:31.465Z,18.5
2023-01-08T10:23:33.126Z,18.5
2023-01-08T10:24:35.111Z,18.6
2023-01-08T10:25:36.853Z,18.6
2023-01-08T10:26:38.571Z,18.6
2023-01-08T10:27:40.239Z,18.6
2023-01-08T10:28:41.871Z,18.5
2023-01-08T10:29:43.485Z,18.5
2023-01-08T10:30:45.169Z,18.6
2023-01-08T10:31:46.998Z,18.6
2023-01-08T10:32:48.967Z,18.6
2023-01-08T10:33:50.668Z,18.6
2023-01-08T10:34:52.416Z,18.6
2023-01-08T10:35:54.159Z,18.6
2023-01-08T10:36:55.784Z,18.6
2023-01-08T10:37:57.397Z,18.6
2023-01-08T10:38:59.021Z,18.6
2023-01-08T10:40:00.857Z,18.6
2023-01-08T10:41:02.621Z,18.6
2023-01-08T10:42:04.229Z,18.6
2023-01-08T10:43:05.870Z,18.6
2023-01-08T10:44:07.581Z,18.6
2023-01-08T10:45:09.503Z,18.6
2023-01-08T10:46:11.212Z,18.6
2023-01-08T10:47:13.031Z,18.6
2023-01-08T10:48:14.801Z,18.6
2023-01-08T10:49:16.509Z,18.6
2023-01-08T10:50:18.140Z,18.6
2023-01-08T10:51:19.766Z,18.6
2023-01-08T10:52:21.369Z,18.6
2023-01-08T10:53:23.068Z,18.6
2023-01-08T10:54:24.730Z,18.6
2023-01-08T10:55:26.511Z,18.7
2023-01-08T10:56:28.198Z,18.7
2023-01-08T10:57:29.843Z,18.7
2023-01-08T10:58:31.440Z,18.7
2023-01-08T10:59:33.110Z,18.7
2023-01-08T11:00:35.117Z,18.7
2023-01-08T11:01:37.503Z,18.7
2023-01-08T11:02:40.070Z,18.7
2023-01-08T11:03:42.265Z,18.7
2023-01-08T11:04:43.948Z,18.7
2023-01-08T11:05:45.581Z,18.7
2023-01-08T11:06:47.187Z,18.7
2023-01-08T11:07:48.840Z,18.7
2023-01-08T11:08:51.920Z,18.7
2023-01-08T11:09:53.578Z,18.7
2023-01-08T11:10:55.241Z,18.7
2023-01-08T11:11:56.871Z,18.7
2023-01-08T11:12:58.685Z,18.7
2023-01-08T11:14:00.335Z,18.7
2023-01-08T11:15:02.070Z,18.7
2023-01-08T11:16:03.877Z,18.7
2023-01-08T11:17:05.889Z,18.7
2023-01-08T11:18:07.563Z,18.7
2023-01-08T11:19:09.214Z,18.7
2023-01-08T11:20:10.948Z,18.7
2023-01-08T11:21:12.586Z,18.7
2023-01-08T11:22:14.222Z,18.7
2023-01-08T11:23:15.844Z,18.7
2023-01-08T11:24:17.458Z,18.7
2023-01-08T11:25:19.239Z,18.8
2023-01-08T11:26:20.907Z,18.8
2023-01-08T11:27:22.549Z,18.7
2023-01-08T11:28:24.159Z,18.7
2023-01-08T11:29:25.734Z,18.8
2023-01-08T11:30:27.493Z,18.7
2023-01-08T11:31:29.209Z,18.8
2023-01-08T11:32:30.960Z,18.7
2023-01-08T11:33:32.599Z,18.8
2023-01-08T11:34:34.231Z,18.8
2023-01-08T11:35:35.943Z,18.8
2023-01-08T11:36:37.631Z,18.8
2023-01-08T11:37:39.296Z,18.8
2023-01-08T11:38:43.618Z,18.8
2023-01-08T11:39:45.317Z,18.8
2023-01-08T11:40:46.997Z,18.8
2023-01-08T11:41:48.656Z,18.8
2023-01-08T11:42:50.262Z,18.8
2023-01-08T11:43:51.888Z,18.8
2023-01-08T11:44:53.573Z,18.8
2023-01-08T11:45:55.368Z,18.8
2023-01-08T11:46:57.168Z,18.8
2023-01-08T11:47:58.785Z,18.8
2023-01-08T11:49:00.391Z,18.8
2023-01-08T11:50:02.059Z,18.8
2023-01-08T11:51:03.739Z,18.8
2023-01-08T11:52:05.383Z,18.8
2023-01-08T11:53:07.093Z,18.8
2023-01-08T11:54:08.953Z,18.8
2023-01-08T11:55:10.562Z,18.8
2023-01-08T11:56:12.179Z,18.8
2023-01-08T11:57:13.862Z,18.8
2023-01-08T11:58:15.468Z,18.8
2023-01-08T11:59:17.213Z,18.8
2023-01-08T12:00:18.905Z,18.8
2023-01-08T12:01:20.895Z,18.8
2023-01-08T12:02:23.150Z,18.8
2023-01-08T12:03:25.089Z,18.8
2023-01-08T12:04:26.965Z,18.8
2023-01-08T12:05:28.754Z,18.8
2023-01-08T12:06:30.531Z,18.8
2023-01-08T12:07:32.256Z,18.8
2023-01-08T12:08:33.927Z,18.8
2023-01-08T12:09:35.601Z,18.8
2023-01-08T12:10:37.233Z,18.8
2023-01-08T12:11:38.886Z,18.8
2023-01-08T12:12:40.554Z,18.8
2023-01-08T12:13:42.173Z,18.8
2023-01-08T12:14:43.968Z,18.8
2023-01-08T12:15:45.667Z,18.8
2023-01-08T12:16:47.525Z,18.8
2023-01-08T12:17:49.403Z,18.8
2023-01-08T12:18:51.059Z,18.8
2023-01-08T12:19:52.682Z,18.8
2023-01-08T12:20:54.307Z,18.8
2023-01-08T12:21:56.052Z,18.8
2023-01-08T12:22:57.714Z,18.9
2023-01-08T12:23:59.353Z,18.8
2023-01-08T12:25:00.974Z,18.8
2023-01-08T12:26:02.605Z,18.8
2023-01-08T12:27:04.317Z,18.8
2023-01-08T12:28:05.978Z,18.8
2023-01-08T12:29:07.618Z,18.9
2023-01-08T12:30:09.266Z,18.8
2023-01-08T12:31:10.987Z,18.9
2023-01-08T12:32:12.995Z,18.8
2023-01-08T12:33:14.870Z,18.8
2023-01-08T12:34:16.971Z,18.8
2023-01-08T12:35:18.638Z,18.8
2023-01-08T12:36:20.283Z,18.8
2023-01-08T12:37:21.916Z,18.8
2023-01-08T12:38:23.626Z,18.8
2023-01-08T12:39:25.279Z,18.8
2023-01-08T12:40:26.981Z,18.8
2023-01-08T12:41:28.584Z,18.8
2023-01-08T12:42:30.179Z,18.8
2023-01-08T12:43:31.935Z,18.8
2023-01-08T12:44:33.607Z,18.8
2023-01-08T12:45:35.432Z,18.8
2023-01-08T12:46:37.361Z,18.8
2023-01-08T12:47:38.970Z,18.9
2023-01-08T12:48:40.687Z,18.8
2023-01-08T12:49:42.343Z,18.9
2023-01-08T12:50:44.015Z,18.9
2023-01-08T12:51:45.643Z,18.9
2023-01-08T12:52:47.282Z,18.9
2023-01-08T12:53:48.953Z,18.9
2023-01-08T12:54:50.713Z,18.9
2023-01-08T12:55:52.505Z,18.8
2023-01-08T12:56:54.128Z,18.9
2023-01-08T12:57:55.750Z,18.9
2023-01-08T12:58:57.613Z,18.9
2023-01-08T12:59:59.266Z,18.9
2023-01-08T13:01:01.101Z,18.8
2023-01-08T13:02:03.214Z,18.8
2023-01-08T13:03:05.383Z,18.8
2023-01-08T13:04:07.311Z,18.8
2023-01-08T13:05:08.976Z,18.8
2023-01-08T13:06:10.658Z,18.8
2023-01-08T13:07:12.306Z,18.8
2023-01-08T13:08:13.950Z,18.8
2023-01-08T13:09:15.654Z,18.8
2023-01-08T13:10:17.255Z,18.9
2023-01-08T13:11:18.900Z,18.9
2023-01-08T13:12:20.527Z,18.9
2023-01-08T13:13:22.157Z,18.9
2023-01-08T13:14:27.472Z,18.9
2023-01-08T13:15:29.295Z,18.9
2023-01-08T13:16:31.135Z,18.9
2023-01-08T13:17:33.121Z,18.9
2023-01-08T13:18:34.732Z,18.9
2023-01-08T13:19:36.386Z,18.9
2023-01-08T13:20:38.098Z,18.9
2023-01-08T13:21:39.759Z,18.9
2023-01-08T13:22:41.472Z,18.9
2023-01-08T13:23:43.154Z,18.9
2023-01-08T13:24:44.789Z,18.9
2023-01-08T13:25:46.411Z,18.9
2023-01-08T13:26:48.245Z,18.9
2023-01-08T13:27:49.887Z,18.9
2023-01-08T13:28:51.482Z,18.9
2023-01-08T13:29:53.180Z,18.9
2023-01-08T13:30:54.871Z,18.9
2023-01-08T13:31:56.697Z,18.9
2023-01-08T13:32:58.475Z,18.9
2023-01-08T13:34:00.118Z,18.9
2023-01-08T13:35:01.770Z,19
2023-01-08T13:36:03.447Z,18.9
2023-01-08T13:37:09.489Z,18.9
2023-01-08T13:38:29.482Z,18.9
2023-01-08T13:39:34.125Z,18.9
2023-01-08T13:40:35.772Z,18.9
2023-01-08T13:41:37.407Z,18.9
2023-01-08T13:42:39.098Z,18.9
2023-01-08T13:43:40.698Z,18.9
2023-01-08T13:44:42.341Z,18.9
2023-01-08T13:45:44.224Z,18.9
2023-01-08T13:46:46.192Z,18.9
2023-01-08T13:47:47.852Z,19
2023-01-08T13:48:49.471Z,19
2023-01-08T13:49:51.143Z,18.9
2023-01-08T13:50:52.844Z,18.9